Portada
METAR-TAF:

METAR-TAF

Aeroports :

Mahshahr, Iran

latitud: 30-33-23N, longitud: 049-09-07E, altitud: 2 m

Observació

L'informe es va fer fa 1 hora i 2 minuts, a les 08:00 UTC
Vent 4 kt del Oest/Sud-Oest
Temperatura 26°C
Humitat 30%
Pressió 1016 hPa
Visibilitat: 5000 m
calitja

METAR: OIAM 120800Z 24004KT 5000 HZ NSC 26/07 Q1016

Hora: 12:32 (09:02 UTC)


TAF: manca

Observacions i pronòstics meteorològics de més de 4000 aeroports (METAR i TAF).

Les estacions disponibles són els punts grocs i vermells al mapa.

Posi el ratolí al punt desitjat per veure el nom de l'estació.

Feu clic per veure les observacions i els pronòstics meteorològics.

Per canviar el mapa: feu clic els botons verds amb una creu de color negre per apropar; al botó verd amb un guió per allunyar la imatge; o en les fletxes verdes per a mapes adjacents.


METAR-TAF: